Terminal Aerodrome Forecast
Issued by NWS Wilmington, OH

Current Version | Previous Version | Graphics & Text | Print | Product List | Glossary On
Versions: 1 2 3 4 5 6 7 8 9 10 11 12 13 14 15 16 17 18 19 20 21
000
FTUS41 KILN 251700
TAFDAY
TAF
KDAY 251740Z 2518/2618 03006KT P6SM BKN250
     FM252100 04005KT P6SM BKN150
     FM260300 04008KT P6SM OVC080
     FM260900 03010KT P6SM OVC050
     FM261200 02012KT 3SM -SN OVC020
     FM261500 02012KT 3SM -SN BR OVC015=

USA.gov is the U.S. government's official web portal to all federal, state and local government web resources and services.